sensor_id;sensor_type;location;lat;lon;timestamp;temperature;humidity
24678;DHT22;12800;53.094;8.778;2023-07-09T00:01:51;23.60;59.30
24678;DHT22;12800;53.094;8.778;2023-07-09T00:04:17;23.60;59.50
24678;DHT22;12800;53.094;8.778;2023-07-09T00:06:43;23.60;59.60
24678;DHT22;12800;53.094;8.778;2023-07-09T00:09:14;23.50;59.60
24678;DHT22;12800;53.094;8.778;2023-07-09T00:11:41;23.50;60.40
24678;DHT22;12800;53.094;8.778;2023-07-09T00:14:09;23.50;59.80
24678;DHT22;12800;53.094;8.778;2023-07-09T00:16:34;23.40;59.90
24678;DHT22;12800;53.094;8.778;2023-07-09T00:19:00;23.40;60.00
24678;DHT22;12800;53.094;8.778;2023-07-09T00:21:27;23.40;60.10
24678;DHT22;12800;53.094;8.778;2023-07-09T00:24:01;23.40;60.20
24678;DHT22;12800;53.094;8.778;2023-07-09T00:26:31;23.30;60.30
24678;DHT22;12800;53.094;8.778;2023-07-09T00:28:58;23.30;60.40
24678;DHT22;12800;53.094;8.778;2023-07-09T00:31:24;23.20;60.40
24678;DHT22;12800;53.094;8.778;2023-07-09T00:33:50;23.20;60.60
24678;DHT22;12800;53.094;8.778;2023-07-09T00:36:28;23.20;60.70
24678;DHT22;12800;53.094;8.778;2023-07-09T00:38:54;23.20;60.90
24678;DHT22;12800;53.094;8.778;2023-07-09T00:41:22;23.10;61.80
24678;DHT22;12800;53.094;8.778;2023-07-09T00:43:50;23.10;61.10
24678;DHT22;12800;53.094;8.778;2023-07-09T00:47:06;23.10;61.10
24678;DHT22;12800;53.094;8.778;2023-07-09T00:49:04;23.00;61.20
24678;DHT22;12800;53.094;8.778;2023-07-09T00:51:32;23.00;61.20
24678;DHT22;12800;53.094;8.778;2023-07-09T00:54:03;23.00;61.20
24678;DHT22;12800;53.094;8.778;2023-07-09T00:56:45;22.90;61.30
24678;DHT22;12800;53.094;8.778;2023-07-09T00:59:15;22.90;61.40
24678;DHT22;12800;53.094;8.778;2023-07-09T01:01:42;22.90;61.50
24678;DHT22;12800;53.094;8.778;2023-07-09T01:04:09;22.80;61.60
24678;DHT22;12800;53.094;8.778;2023-07-09T01:06:45;22.80;61.80
24678;DHT22;12800;53.094;8.778;2023-07-09T01:09:11;22.80;61.90
24678;DHT22;12800;53.094;8.778;2023-07-09T01:11:37;22.70;62.90
24678;DHT22;12800;53.094;8.778;2023-07-09T01:14:08;22.70;62.20
24678;DHT22;12800;53.094;8.778;2023-07-09T01:16:37;22.70;62.30
24678;DHT22;12800;53.094;8.778;2023-07-09T01:19:04;22.60;62.30
24678;DHT22;12800;53.094;8.778;2023-07-09T01:21:30;22.60;62.40
24678;DHT22;12800;53.094;8.778;2023-07-09T01:23:56;22.50;62.50
24678;DHT22;12800;53.094;8.778;2023-07-09T01:26:25;22.50;62.60
24678;DHT22;12800;53.094;8.778;2023-07-09T01:28:52;22.50;62.60
24678;DHT22;12800;53.094;8.778;2023-07-09T01:31:18;22.50;62.70
24678;DHT22;12800;53.094;8.778;2023-07-09T01:33:46;22.50;62.80
24678;DHT22;12800;53.094;8.778;2023-07-09T01:36:18;22.50;62.90
24678;DHT22;12800;53.094;8.778;2023-07-09T01:38:47;22.40;62.80
24678;DHT22;12800;53.094;8.778;2023-07-09T01:41:14;22.40;62.90
24678;DHT22;12800;53.094;8.778;2023-07-09T01:43:42;22.40;62.60
24678;DHT22;12800;53.094;8.778;2023-07-09T01:46:08;22.40;62.40
24678;DHT22;12800;53.094;8.778;2023-07-09T01:48:34;22.40;62.00
24678;DHT22;12800;53.094;8.778;2023-07-09T01:51:08;22.40;61.30
24678;DHT22;12800;53.094;8.778;2023-07-09T01:53:35;22.40;60.50
24678;DHT22;12800;53.094;8.778;2023-07-09T01:56:03;22.40;60.00
24678;DHT22;12800;53.094;8.778;2023-07-09T01:58:29;22.40;59.70
24678;DHT22;12800;53.094;8.778;2023-07-09T02:00:58;22.50;59.40
24678;DHT22;12800;53.094;8.778;2023-07-09T02:03:24;22.50;59.30
24678;DHT22;12800;53.094;8.778;2023-07-09T02:05:53;22.50;59.00
24678;DHT22;12800;53.094;8.778;2023-07-09T02:08:19;22.50;58.90
24678;DHT22;12800;53.094;8.778;2023-07-09T02:10:47;22.50;58.70
24678;DHT22;12800;53.094;8.778;2023-07-09T02:13:13;22.50;59.20
24678;DHT22;12800;53.094;8.778;2023-07-09T02:15:39;22.50;58.50
24678;DHT22;12800;53.094;8.778;2023-07-09T02:18:09;22.50;58.40
24678;DHT22;12800;53.094;8.778;2023-07-09T02:20:35;22.50;58.40
24678;DHT22;12800;53.094;8.778;2023-07-09T02:23:00;22.50;58.40
24678;DHT22;12800;53.094;8.778;2023-07-09T02:25:26;22.50;58.30
24678;DHT22;12800;53.094;8.778;2023-07-09T02:27:51;22.50;58.20
24678;DHT22;12800;53.094;8.778;2023-07-09T02:30:17;22.50;58.10
24678;DHT22;12800;53.094;8.778;2023-07-09T02:32:43;22.50;58.30
24678;DHT22;12800;53.094;8.778;2023-07-09T02:35:08;22.50;58.40
24678;DHT22;12800;53.094;8.778;2023-07-09T02:37:34;22.50;58.40
24678;DHT22;12800;53.094;8.778;2023-07-09T02:40:00;22.40;58.50
24678;DHT22;12800;53.094;8.778;2023-07-09T02:42:25;22.40;58.40
24678;DHT22;12800;53.094;8.778;2023-07-09T02:44:51;22.40;58.50
24678;DHT22;12800;53.094;8.778;2023-07-09T02:47:17;22.30;58.50
24678;DHT22;12800;53.094;8.778;2023-07-09T02:49:43;22.30;58.60
24678;DHT22;12800;53.094;8.778;2023-07-09T02:52:08;22.20;58.70
24678;DHT22;12800;53.094;8.778;2023-07-09T02:54:34;22.20;59.10
24678;DHT22;12800;53.094;8.778;2023-07-09T02:57:00;22.20;59.20
24678;DHT22;12800;53.094;8.778;2023-07-09T02:59:25;22.20;59.40
24678;DHT22;12800;53.094;8.778;2023-07-09T03:01:55;22.10;59.50
24678;DHT22;12800;53.094;8.778;2023-07-09T03:04:21;22.10;59.60
24678;DHT22;12800;53.094;8.778;2023-07-09T03:06:47;22.00;59.80
24678;DHT22;12800;53.094;8.778;2023-07-09T03:09:13;22.00;60.00
24678;DHT22;12800;53.094;8.778;2023-07-09T03:11:38;22.00;60.20
24678;DHT22;12800;53.094;8.778;2023-07-09T03:14:04;22.00;60.10
24678;DHT22;12800;53.094;8.778;2023-07-09T03:16:33;21.90;60.30
24678;DHT22;12800;53.094;8.778;2023-07-09T03:18:59;21.90;59.90
24678;DHT22;12800;53.094;8.778;2023-07-09T03:21:26;21.90;60.10
24678;DHT22;12800;53.094;8.778;2023-07-09T03:23:52;21.90;60.20
24678;DHT22;12800;53.094;8.778;2023-07-09T03:26:18;21.90;60.10
24678;DHT22;12800;53.094;8.778;2023-07-09T03:28:44;21.90;60.30
24678;DHT22;12800;53.094;8.778;2023-07-09T03:31:10;21.90;60.20
24678;DHT22;12800;53.094;8.778;2023-07-09T03:33:36;21.90;60.20
24678;DHT22;12800;53.094;8.778;2023-07-09T03:36:01;21.90;59.90
24678;DHT22;12800;53.094;8.778;2023-07-09T03:38:29;21.90;60.10
24678;DHT22;12800;53.094;8.778;2023-07-09T03:40:55;21.90;59.90
24678;DHT22;12800;53.094;8.778;2023-07-09T03:43:22;21.90;59.90
24678;DHT22;12800;53.094;8.778;2023-07-09T03:45:48;21.90;60.10
24678;DHT22;12800;53.094;8.778;2023-07-09T03:48:15;21.90;60.30
24678;DHT22;12800;53.094;8.778;2023-07-09T03:50:44;21.90;60.60
24678;DHT22;12800;53.094;8.778;2023-07-09T03:53:10;21.90;60.90
24678;DHT22;12800;53.094;8.778;2023-07-09T03:55:35;21.90;61.10
24678;DHT22;12800;53.094;8.778;2023-07-09T03:58:01;21.90;61.60
24678;DHT22;12800;53.094;8.778;2023-07-09T04:00:31;21.80;61.90
24678;DHT22;12800;53.094;8.778;2023-07-09T04:02:56;21.80;62.00
24678;DHT22;12800;53.094;8.778;2023-07-09T04:05:23;21.80;62.20
24678;DHT22;12800;53.094;8.778;2023-07-09T04:07:49;21.80;62.50
24678;DHT22;12800;53.094;8.778;2023-07-09T04:10:15;21.70;62.80
24678;DHT22;12800;53.094;8.778;2023-07-09T04:12:41;21.70;62.90
24678;DHT22;12800;53.094;8.778;2023-07-09T04:15:07;21.70;63.10
24678;DHT22;12800;53.094;8.778;2023-07-09T04:17:33;21.70;63.30
24678;DHT22;12800;53.094;8.778;2023-07-09T04:19:58;21.70;63.50
24678;DHT22;12800;53.094;8.778;2023-07-09T04:22:24;21.70;63.50
24678;DHT22;12800;53.094;8.778;2023-07-09T04:24:50;21.70;63.50
24678;DHT22;12800;53.094;8.778;2023-07-09T04:27:17;21.70;63.60
24678;DHT22;12800;53.094;8.778;2023-07-09T04:29:43;21.70;63.50
24678;DHT22;12800;53.094;8.778;2023-07-09T04:32:13;21.70;63.50
24678;DHT22;12800;53.094;8.778;2023-07-09T04:34:39;21.70;64.30
24678;DHT22;12800;53.094;8.778;2023-07-09T04:37:09;21.70;63.60
24678;DHT22;12800;53.094;8.778;2023-07-09T04:39:35;21.70;63.60
24678;DHT22;12800;53.094;8.778;2023-07-09T04:42:01;21.70;63.60
24678;DHT22;12800;53.094;8.778;2023-07-09T04:44:27;21.70;63.80
24678;DHT22;12800;53.094;8.778;2023-07-09T04:46:53;21.70;63.80
24678;DHT22;12800;53.094;8.778;2023-07-09T04:49:19;21.70;63.90
24678;DHT22;12800;53.094;8.778;2023-07-09T04:51:44;21.70;64.00
24678;DHT22;12800;53.094;8.778;2023-07-09T04:54:10;21.70;64.00
24678;DHT22;12800;53.094;8.778;2023-07-09T04:56:35;21.70;64.00
24678;DHT22;12800;53.094;8.778;2023-07-09T04:59:02;21.70;64.10
24678;DHT22;12800;53.094;8.778;2023-07-09T05:01:28;21.70;64.00
24678;DHT22;12800;53.094;8.778;2023-07-09T05:03:54;21.70;64.10
24678;DHT22;12800;53.094;8.778;2023-07-09T05:06:20;21.60;64.10
24678;DHT22;12800;53.094;8.778;2023-07-09T05:08:47;21.70;64.20
24678;DHT22;12800;53.094;8.778;2023-07-09T05:11:14;21.70;65.00
24678;DHT22;12800;53.094;8.778;2023-07-09T05:13:40;21.70;64.10
24678;DHT22;12800;53.094;8.778;2023-07-09T05:16:06;21.80;64.20
24678;DHT22;12800;53.094;8.778;2023-07-09T05:18:32;21.90;64.10
24678;DHT22;12800;53.094;8.778;2023-07-09T05:20:57;21.90;63.90
24678;DHT22;12800;53.094;8.778;2023-07-09T05:23:24;21.90;64.60
24678;DHT22;12800;53.094;8.778;2023-07-09T05:25:55;22.00;63.70
24678;DHT22;12800;53.094;8.778;2023-07-09T05:28:21;22.10;63.50
24678;DHT22;12800;53.094;8.778;2023-07-09T05:30:46;22.10;63.20
24678;DHT22;12800;53.094;8.778;2023-07-09T05:33:12;22.20;62.90
24678;DHT22;12800;53.094;8.778;2023-07-09T05:35:37;22.20;62.80
24678;DHT22;12800;53.094;8.778;2023-07-09T05:38:03;22.30;62.70
24678;DHT22;12800;53.094;8.778;2023-07-09T05:40:29;22.30;62.50
24678;DHT22;12800;53.094;8.778;2023-07-09T05:42:55;22.40;62.20
24678;DHT22;12800;53.094;8.778;2023-07-09T05:45:21;22.50;62.30
24678;DHT22;12800;53.094;8.778;2023-07-09T05:47:46;22.60;62.10
24678;DHT22;12800;53.094;8.778;2023-07-09T05:50:12;22.60;61.50
24678;DHT22;12800;53.094;8.778;2023-07-09T05:52:37;22.70;61.50
24678;DHT22;12800;53.094;8.778;2023-07-09T05:55:03;22.80;61.10
24678;DHT22;12800;53.094;8.778;2023-07-09T05:57:29;22.90;60.00
24678;DHT22;12800;53.094;8.778;2023-07-09T05:59:54;23.00;59.40
24678;DHT22;12800;53.094;8.778;2023-07-09T06:02:21;23.10;58.90
24678;DHT22;12800;53.094;8.778;2023-07-09T06:04:47;23.10;58.50
24678;DHT22;12800;53.094;8.778;2023-07-09T06:07:16;23.20;58.30
24678;DHT22;12800;53.094;8.778;2023-07-09T06:09:44;23.30;58.10
24678;DHT22;12800;53.094;8.778;2023-07-09T06:12:11;23.40;58.10
24678;DHT22;12800;53.094;8.778;2023-07-09T06:14:37;23.50;57.90
24678;DHT22;12800;53.094;8.778;2023-07-09T06:17:03;23.50;57.80
24678;DHT22;12800;53.094;8.778;2023-07-09T06:19:29;23.60;57.60
24678;DHT22;12800;53.094;8.778;2023-07-09T06:21:54;23.60;57.40
24678;DHT22;12800;53.094;8.778;2023-07-09T06:24:21;23.60;57.30
24678;DHT22;12800;53.094;8.778;2023-07-09T06:26:47;23.70;57.20
24678;DHT22;12800;53.094;8.778;2023-07-09T06:29:13;23.80;57.00
24678;DHT22;12800;53.094;8.778;2023-07-09T06:31:38;23.80;57.00
24678;DHT22;12800;53.094;8.778;2023-07-09T06:34:06;23.90;56.90
24678;DHT22;12800;53.094;8.778;2023-07-09T06:36:32;23.90;56.80
24678;DHT22;12800;53.094;8.778;2023-07-09T06:38:58;24.00;56.80
24678;DHT22;12800;53.094;8.778;2023-07-09T06:41:24;24.00;56.50
24678;DHT22;12800;53.094;8.778;2023-07-09T06:43:50;24.10;56.50
24678;DHT22;12800;53.094;8.778;2023-07-09T06:46:18;24.20;56.20
24678;DHT22;12800;53.094;8.778;2023-07-09T06:48:44;24.20;56.20
24678;DHT22;12800;53.094;8.778;2023-07-09T06:51:09;24.30;56.20
24678;DHT22;12800;53.094;8.778;2023-07-09T06:53:35;24.30;56.30
24678;DHT22;12800;53.094;8.778;2023-07-09T06:56:02;24.40;56.60
24678;DHT22;12800;53.094;8.778;2023-07-09T06:58:29;24.50;56.30
24678;DHT22;12800;53.094;8.778;2023-07-09T07:00:57;24.60;56.10
24678;DHT22;12800;53.094;8.778;2023-07-09T07:03:24;24.60;55.80
24678;DHT22;12800;53.094;8.778;2023-07-09T07:05:51;24.70;55.70
24678;DHT22;12800;53.094;8.778;2023-07-09T07:08:21;24.70;55.70
24678;DHT22;12800;53.094;8.778;2023-07-09T07:10:49;24.80;55.60
24678;DHT22;12800;53.094;8.778;2023-07-09T07:13:15;24.90;55.60
24678;DHT22;12800;53.094;8.778;2023-07-09T07:15:41;24.90;55.60
24678;DHT22;12800;53.094;8.778;2023-07-09T07:18:07;25.00;55.60
24678;DHT22;12800;53.094;8.778;2023-07-09T07:20:33;25.10;55.50
24678;DHT22;12800;53.094;8.778;2023-07-09T07:22:59;25.20;55.20
24678;DHT22;12800;53.094;8.778;2023-07-09T07:25:25;25.20;55.00
24678;DHT22;12800;53.094;8.778;2023-07-09T07:27:51;25.30;54.90
24678;DHT22;12800;53.094;8.778;2023-07-09T07:30:17;25.40;54.60
24678;DHT22;12800;53.094;8.778;2023-07-09T07:32:47;25.40;54.80
24678;DHT22;12800;53.094;8.778;2023-07-09T07:35:14;25.50;54.50
24678;DHT22;12800;53.094;8.778;2023-07-09T07:37:41;25.60;54.50
24678;DHT22;12800;53.094;8.778;2023-07-09T07:40:07;25.60;54.50
24678;DHT22;12800;53.094;8.778;2023-07-09T07:42:33;25.70;54.50
24678;DHT22;12800;53.094;8.778;2023-07-09T07:44:59;25.80;54.30
24678;DHT22;12800;53.094;8.778;2023-07-09T07:47:24;25.80;54.20
24678;DHT22;12800;53.094;8.778;2023-07-09T07:49:51;25.90;54.30
24678;DHT22;12800;53.094;8.778;2023-07-09T07:52:17;26.00;54.30
24678;DHT22;12800;53.094;8.778;2023-07-09T07:54:42;26.00;54.20
24678;DHT22;12800;53.094;8.778;2023-07-09T07:57:08;26.10;54.30
24678;DHT22;12800;53.094;8.778;2023-07-09T07:59:35;26.20;54.40
24678;DHT22;12800;53.094;8.778;2023-07-09T08:02:02;26.30;53.90
24678;DHT22;12800;53.094;8.778;2023-07-09T08:04:27;26.40;53.90
24678;DHT22;12800;53.094;8.778;2023-07-09T08:06:53;26.40;53.60
24678;DHT22;12800;53.094;8.778;2023-07-09T08:09:19;26.50;53.30
24678;DHT22;12800;53.094;8.778;2023-07-09T08:11:45;26.60;53.10
24678;DHT22;12800;53.094;8.778;2023-07-09T08:14:11;26.70;53.00
24678;DHT22;12800;53.094;8.778;2023-07-09T08:16:37;26.80;52.80
24678;DHT22;12800;53.094;8.778;2023-07-09T08:19:03;26.90;52.50
24678;DHT22;12800;53.094;8.778;2023-07-09T08:21:29;26.90;52.30
24678;DHT22;12800;53.094;8.778;2023-07-09T08:23:55;27.00;52.20
24678;DHT22;12800;53.094;8.778;2023-07-09T08:26:20;27.10;52.00
24678;DHT22;12800;53.094;8.778;2023-07-09T08:28:46;27.20;51.90
24678;DHT22;12800;53.094;8.778;2023-07-09T08:31:12;27.30;51.90
24678;DHT22;12800;53.094;8.778;2023-07-09T08:33:37;27.40;51.90
24678;DHT22;12800;53.094;8.778;2023-07-09T08:36:03;27.40;51.80
24678;DHT22;12800;53.094;8.778;2023-07-09T08:38:29;27.50;51.70
24678;DHT22;12800;53.094;8.778;2023-07-09T08:40:58;27.60;51.90
24678;DHT22;12800;53.094;8.778;2023-07-09T08:43:47;27.60;51.60
24678;DHT22;12800;53.094;8.778;2023-07-09T08:49:07;27.70;51.80
24678;DHT22;12800;53.094;8.778;2023-07-09T08:51:39;27.70;51.80
24678;DHT22;12800;53.094;8.778;2023-07-09T08:54:18;27.80;52.30
24678;DHT22;12800;53.094;8.778;2023-07-09T08:56:47;27.80;51.20
24678;DHT22;12800;53.094;8.778;2023-07-09T08:59:16;27.90;51.40
24678;DHT22;12800;53.094;8.778;2023-07-09T09:01:50;27.90;51.30
24678;DHT22;12800;53.094;8.778;2023-07-09T09:04:27;28.00;51.10
24678;DHT22;12800;53.094;8.778;2023-07-09T09:07:31;28.10;51.10
24678;DHT22;12800;53.094;8.778;2023-07-09T09:10:02;28.10;51.20
24678;DHT22;12800;53.094;8.778;2023-07-09T09:12:33;28.20;50.60
24678;DHT22;12800;53.094;8.778;2023-07-09T09:15:11;28.20;50.60
24678;DHT22;12800;53.094;8.778;2023-07-09T09:17:39;28.30;50.60
24678;DHT22;12800;53.094;8.778;2023-07-09T09:20:16;28.40;50.50
24678;DHT22;12800;53.094;8.778;2023-07-09T09:22:44;28.50;50.50
24678;DHT22;12800;53.094;8.778;2023-07-09T09:27:40;28.60;50.10
24678;DHT22;12800;53.094;8.778;2023-07-09T09:30:14;28.70;50.00
24678;DHT22;12800;53.094;8.778;2023-07-09T09:32:45;28.70;50.00
24678;DHT22;12800;53.094;8.778;2023-07-09T09:35:14;28.80;50.20
24678;DHT22;12800;53.094;8.778;2023-07-09T09:37:43;28.90;49.90
24678;DHT22;12800;53.094;8.778;2023-07-09T09:40:10;28.90;49.50
24678;DHT22;12800;53.094;8.778;2023-07-09T09:42:36;29.00;49.40
24678;DHT22;12800;53.094;8.778;2023-07-09T09:45:02;29.10;49.40
24678;DHT22;12800;53.094;8.778;2023-07-09T09:47:28;29.10;49.20
24678;DHT22;12800;53.094;8.778;2023-07-09T09:49:54;29.20;49.50
24678;DHT22;12800;53.094;8.778;2023-07-09T09:52:24;29.30;49.60
24678;DHT22;12800;53.094;8.778;2023-07-09T09:55:01;29.40;48.80
24678;DHT22;12800;53.094;8.778;2023-07-09T09:57:27;29.40;48.70
24678;DHT22;12800;53.094;8.778;2023-07-09T09:59:56;29.50;48.40
24678;DHT22;12800;53.094;8.778;2023-07-09T10:02:24;29.60;48.20
24678;DHT22;12800;53.094;8.778;2023-07-09T10:04:51;29.70;48.30
24678;DHT22;12800;53.094;8.778;2023-07-09T10:07:30;29.80;48.40
24678;DHT22;12800;53.094;8.778;2023-07-09T10:09:56;29.90;48.20
24678;DHT22;12800;53.094;8.778;2023-07-09T10:12:51;30.10;47.70
24678;DHT22;12800;53.094;8.778;2023-07-09T10:18:07;30.40;47.50
24678;DHT22;12800;53.094;8.778;2023-07-09T10:20:47;30.50;46.70
24678;DHT22;12800;53.094;8.778;2023-07-09T10:23:29;30.60;46.80
24678;DHT22;12800;53.094;8.778;2023-07-09T10:26:45;30.70;46.70
24678;DHT22;12800;53.094;8.778;2023-07-09T10:40:42;31.30;45.50
24678;DHT22;12800;53.094;8.778;2023-07-09T10:43:15;31.40;45.20
24678;DHT22;12800;53.094;8.778;2023-07-09T10:45:48;31.50;45.80
24678;DHT22;12800;53.094;8.778;2023-07-09T10:48:38;31.50;44.80
24678;DHT22;12800;53.094;8.778;2023-07-09T10:51:16;31.60;44.70
24678;DHT22;12800;53.094;8.778;2023-07-09T10:53:45;31.70;44.50
24678;DHT22;12800;53.094;8.778;2023-07-09T10:56:17;31.70;44.80
24678;DHT22;12800;53.094;8.778;2023-07-09T10:59:21;31.80;44.10
24678;DHT22;12800;53.094;8.778;2023-07-09T11:01:54;31.80;44.00
24678;DHT22;12800;53.094;8.778;2023-07-09T11:04:35;31.90;43.60
24678;DHT22;12800;53.094;8.778;2023-07-09T11:07:05;32.00;42.80
24678;DHT22;12800;53.094;8.778;2023-07-09T11:09:35;32.00;42.60
24678;DHT22;12800;53.094;8.778;2023-07-09T11:14:47;32.10;43.00
24678;DHT22;12800;53.094;8.778;2023-07-09T11:17:18;32.20;42.60
24678;DHT22;12800;53.094;8.778;2023-07-09T11:19:54;32.20;42.80
24678;DHT22;12800;53.094;8.778;2023-07-09T11:22:26;32.30;42.60
24678;DHT22;12800;53.094;8.778;2023-07-09T11:25:03;32.40;42.00
24678;DHT22;12800;53.094;8.778;2023-07-09T11:27:30;32.40;41.60
24678;DHT22;12800;53.094;8.778;2023-07-09T11:30:02;32.50;41.60
24678;DHT22;12800;53.094;8.778;2023-07-09T11:32:29;32.60;41.00
24678;DHT22;12800;53.094;8.778;2023-07-09T11:35:07;32.70;41.00
24678;DHT22;12800;53.094;8.778;2023-07-09T11:37:32;32.80;40.60
24678;DHT22;12800;53.094;8.778;2023-07-09T11:40:12;32.80;40.40
24678;DHT22;12800;53.094;8.778;2023-07-09T11:45:20;32.80;40.20
24678;DHT22;12800;53.094;8.778;2023-07-09T11:47:55;33.00;40.30
24678;DHT22;12800;53.094;8.778;2023-07-09T11:50:30;33.00;39.90
24678;DHT22;12800;53.094;8.778;2023-07-09T11:55:45;33.10;39.70
24678;DHT22;12800;53.094;8.778;2023-07-09T11:58:15;33.20;39.80
24678;DHT22;12800;53.094;8.778;2023-07-09T12:00:43;33.30;39.60
24678;DHT22;12800;53.094;8.778;2023-07-09T12:03:28;33.30;39.60
24678;DHT22;12800;53.094;8.778;2023-07-09T12:05:59;33.40;39.20
24678;DHT22;12800;53.094;8.778;2023-07-09T12:08:39;33.50;39.60
24678;DHT22;12800;53.094;8.778;2023-07-09T12:11:05;33.60;39.60
24678;DHT22;12800;53.094;8.778;2023-07-09T12:13:39;33.60;39.40
24678;DHT22;12800;53.094;8.778;2023-07-09T12:16:24;33.70;39.40
24678;DHT22;12800;53.094;8.778;2023-07-09T12:18:50;33.70;39.50
24678;DHT22;12800;53.094;8.778;2023-07-09T12:21:16;33.80;39.10
24678;DHT22;12800;53.094;8.778;2023-07-09T12:23:42;33.80;39.00
24678;DHT22;12800;53.094;8.778;2023-07-09T12:26:13;33.80;38.70
24678;DHT22;12800;53.094;8.778;2023-07-09T12:28:39;33.90;39.30
24678;DHT22;12800;53.094;8.778;2023-07-09T12:31:13;33.90;39.20
24678;DHT22;12800;53.094;8.778;2023-07-09T12:33:47;34.00;39.00
24678;DHT22;12800;53.094;8.778;2023-07-09T12:36:14;34.10;39.20
24678;DHT22;12800;53.094;8.778;2023-07-09T12:38:43;34.20;39.40
24678;DHT22;12800;53.094;8.778;2023-07-09T12:41:28;34.30;39.30
24678;DHT22;12800;53.094;8.778;2023-07-09T12:43:54;34.40;38.90
24678;DHT22;12800;53.094;8.778;2023-07-09T12:46:21;34.50;39.00
24678;DHT22;12800;53.094;8.778;2023-07-09T12:48:48;34.50;39.30
24678;DHT22;12800;53.094;8.778;2023-07-09T12:51:23;34.60;38.80
24678;DHT22;12800;53.094;8.778;2023-07-09T12:54:05;34.70;38.70
24678;DHT22;12800;53.094;8.778;2023-07-09T12:56:35;34.80;38.30
24678;DHT22;12800;53.094;8.778;2023-07-09T12:59:03;34.90;38.60
24678;DHT22;12800;53.094;8.778;2023-07-09T13:01:35;35.00;38.30
24678;DHT22;12800;53.094;8.778;2023-07-09T13:04:01;35.10;37.50
24678;DHT22;12800;53.094;8.778;2023-07-09T13:06:29;35.10;37.80
24678;DHT22;12800;53.094;8.778;2023-07-09T13:08:58;35.10;37.60
24678;DHT22;12800;53.094;8.778;2023-07-09T13:11:25;35.20;37.70
24678;DHT22;12800;53.094;8.778;2023-07-09T13:13:56;35.20;37.40
24678;DHT22;12800;53.094;8.778;2023-07-09T13:16:22;35.10;37.10
24678;DHT22;12800;53.094;8.778;2023-07-09T13:18:47;35.20;37.60
24678;DHT22;12800;53.094;8.778;2023-07-09T13:21:16;35.20;37.70
24678;DHT22;12800;53.094;8.778;2023-07-09T13:23:42;35.30;38.30
24678;DHT22;12800;53.094;8.778;2023-07-09T13:26:08;35.40;37.90
24678;DHT22;12800;53.094;8.778;2023-07-09T13:28:34;35.40;37.60
24678;DHT22;12800;53.094;8.778;2023-07-09T13:31:12;35.40;37.00
24678;DHT22;12800;53.094;8.778;2023-07-09T13:33:39;35.50;37.20
24678;DHT22;12800;53.094;8.778;2023-07-09T13:36:05;35.60;37.10
24678;DHT22;12800;53.094;8.778;2023-07-09T13:38:32;35.60;36.90
24678;DHT22;12800;53.094;8.778;2023-07-09T13:41:01;35.70;36.80
24678;DHT22;12800;53.094;8.778;2023-07-09T13:43:30;35.80;36.70
24678;DHT22;12800;53.094;8.778;2023-07-09T13:45:56;35.80;36.00
24678;DHT22;12800;53.094;8.778;2023-07-09T13:48:23;35.90;36.40
24678;DHT22;12800;53.094;8.778;2023-07-09T13:50:51;36.00;35.50
24678;DHT22;12800;53.094;8.778;2023-07-09T13:53:20;36.00;35.50
24678;DHT22;12800;53.094;8.778;2023-07-09T13:55:46;36.20;35.10
24678;DHT22;12800;53.094;8.778;2023-07-09T13:58:14;36.30;35.70
24678;DHT22;12800;53.094;8.778;2023-07-09T14:00:42;36.30;35.60
24678;DHT22;12800;53.094;8.778;2023-07-09T14:03:18;36.40;35.60
24678;DHT22;12800;53.094;8.778;2023-07-09T14:05:44;36.50;35.10
24678;DHT22;12800;53.094;8.778;2023-07-09T14:08:11;36.60;35.00
24678;DHT22;12800;53.094;8.778;2023-07-09T14:10:38;36.60;35.00
24678;DHT22;12800;53.094;8.778;2023-07-09T14:13:04;36.70;35.20
24678;DHT22;12800;53.094;8.778;2023-07-09T14:15:29;36.80;34.70
24678;DHT22;12800;53.094;8.778;2023-07-09T14:17:55;36.80;34.40
24678;DHT22;12800;53.094;8.778;2023-07-09T14:20:22;36.80;34.60
24678;DHT22;12800;53.094;8.778;2023-07-09T14:22:49;36.80;34.40
24678;DHT22;12800;53.094;8.778;2023-07-09T14:25:18;36.80;34.60
24678;DHT22;12800;53.094;8.778;2023-07-09T14:27:45;36.80;34.80
24678;DHT22;12800;53.094;8.778;2023-07-09T14:30:16;36.80;34.50
24678;DHT22;12800;53.094;8.778;2023-07-09T14:32:42;36.80;35.00
24678;DHT22;12800;53.094;8.778;2023-07-09T14:35:23;36.80;35.00
24678;DHT22;12800;53.094;8.778;2023-07-09T14:37:51;36.80;34.60
24678;DHT22;12800;53.094;8.778;2023-07-09T14:40:18;36.80;34.80
24678;DHT22;12800;53.094;8.778;2023-07-09T14:42:45;36.70;34.70
24678;DHT22;12800;53.094;8.778;2023-07-09T14:45:23;36.60;34.70
24678;DHT22;12800;53.094;8.778;2023-07-09T14:47:50;36.60;35.00
24678;DHT22;12800;53.094;8.778;2023-07-09T14:50:17;36.40;34.80
24678;DHT22;12800;53.094;8.778;2023-07-09T14:52:44;36.40;34.60
24678;DHT22;12800;53.094;8.778;2023-07-09T14:55:21;36.40;34.70
24678;DHT22;12800;53.094;8.778;2023-07-09T14:57:47;36.30;35.00
24678;DHT22;12800;53.094;8.778;2023-07-09T15:00:19;36.30;34.90
24678;DHT22;12800;53.094;8.778;2023-07-09T15:02:46;36.30;34.80
24678;DHT22;12800;53.094;8.778;2023-07-09T15:05:18;36.40;35.00
24678;DHT22;12800;53.094;8.778;2023-07-09T15:07:44;36.50;35.00
24678;DHT22;12800;53.094;8.778;2023-07-09T15:10:29;36.60;34.80
24678;DHT22;12800;53.094;8.778;2023-07-09T15:12:55;36.60;34.70
24678;DHT22;12800;53.094;8.778;2023-07-09T15:15:25;36.70;34.60
24678;DHT22;12800;53.094;8.778;2023-07-09T15:17:51;36.70;34.80
24678;DHT22;12800;53.094;8.778;2023-07-09T15:20:19;36.70;34.80
24678;DHT22;12800;53.094;8.778;2023-07-09T15:22:46;36.70;34.50
24678;DHT22;12800;53.094;8.778;2023-07-09T15:25:20;36.70;35.00
24678;DHT22;12800;53.094;8.778;2023-07-09T15:27:46;36.60;35.00
24678;DHT22;12800;53.094;8.778;2023-07-09T15:30:32;36.60;35.30
24678;DHT22;12800;53.094;8.778;2023-07-09T15:32:59;36.40;35.00
24678;DHT22;12800;53.094;8.778;2023-07-09T15:35:32;36.20;35.10
24678;DHT22;12800;53.094;8.778;2023-07-09T15:37:58;36.10;35.60
24678;DHT22;12800;53.094;8.778;2023-07-09T15:40:27;35.90;35.90
24678;DHT22;12800;53.094;8.778;2023-07-09T15:42:58;35.80;36.30
24678;DHT22;12800;53.094;8.778;2023-07-09T15:45:25;35.60;36.30
24678;DHT22;12800;53.094;8.778;2023-07-09T15:47:52;35.50;36.60
24678;DHT22;12800;53.094;8.778;2023-07-09T15:50:24;35.40;36.10
24678;DHT22;12800;53.094;8.778;2023-07-09T15:52:51;35.20;36.20
24678;DHT22;12800;53.094;8.778;2023-07-09T15:55:27;35.10;36.20
24678;DHT22;12800;53.094;8.778;2023-07-09T15:57:54;35.00;36.30
24678;DHT22;12800;53.094;8.778;2023-07-09T16:00:25;34.90;36.20
24678;DHT22;12800;53.094;8.778;2023-07-09T16:02:52;34.80;36.70
24678;DHT22;12800;53.094;8.778;2023-07-09T16:05:25;34.70;37.20
24678;DHT22;12800;53.094;8.778;2023-07-09T16:07:57;34.60;37.00